createdAt,value
2023-04-08T00:00:02.790Z,87.96
2023-04-08T00:01:02.817Z,87.92
2023-04-08T00:02:02.889Z,88.53
2023-04-08T00:03:03.097Z,87.81
2023-04-08T00:04:02.958Z,88.26
2023-04-08T00:05:02.818Z,88.23
2023-04-08T00:06:02.727Z,87.85
2023-04-08T00:07:02.715Z,88.23
2023-04-08T00:08:02.704Z,88.33
2023-04-08T00:09:02.703Z,87.92
2023-04-08T00:10:02.684Z,87.81
2023-04-08T00:11:02.682Z,88.12
2023-04-08T00:12:02.663Z,88.12
2023-04-08T00:13:02.688Z,87.92
2023-04-08T00:14:02.660Z,87.51
2023-04-08T00:15:02.633Z,88.12
2023-04-08T00:16:02.620Z,87.60
2023-04-08T00:17:02.699Z,87.71
2023-04-08T00:18:02.656Z,88.26
2023-04-08T00:19:02.605Z,88.02
2023-04-08T00:20:02.594Z,88.12
2023-04-08T00:21:02.580Z,87.65
2023-04-08T00:22:02.556Z,88.33
2023-04-08T00:23:02.549Z,88.23
2023-04-08T00:24:02.534Z,88.43
2023-04-08T00:25:02.538Z,88.33
2023-04-08T00:26:02.512Z,88.23
2023-04-08T00:27:02.503Z,88.37
2023-04-08T00:28:02.492Z,88.26
2023-04-08T00:29:02.495Z,88.26
2023-04-08T00:30:02.482Z,88.37
2023-04-08T00:31:02.499Z,89.09
2023-04-08T00:32:02.478Z,89.09
2023-04-08T00:33:02.519Z,88.78
2023-04-08T00:34:02.450Z,88.78
2023-04-08T00:35:02.439Z,88.89
2023-04-08T00:36:02.442Z,88.99
2023-04-08T00:37:02.394Z,89.40
2023-04-08T00:38:02.383Z,89.40
2023-04-08T00:39:02.394Z,88.23
2023-04-08T00:40:02.361Z,88.06
2023-04-08T00:41:02.355Z,88.57
2023-04-08T00:42:02.339Z,88.78
2023-04-08T00:43:02.331Z,88.78
2023-04-08T00:44:02.323Z,89.40
2023-04-08T00:45:02.326Z,88.57
2023-04-08T00:46:02.358Z,88.57
2023-04-08T00:47:02.290Z,88.47
2023-04-08T00:48:02.339Z,89.09
2023-04-08T00:49:02.306Z,88.99
2023-04-08T00:50:02.259Z,89.36
2023-04-08T00:51:02.254Z,89.36
2023-04-08T00:52:02.282Z,89.25
2023-04-08T00:53:02.222Z,89.15
2023-04-08T00:54:02.225Z,88.12
2023-04-08T00:55:02.214Z,88.43
2023-04-08T00:56:02.192Z,89.15
2023-04-08T00:57:02.188Z,89.25
2023-04-08T00:58:02.171Z,88.23
2023-04-08T00:59:02.175Z,88.64
2023-04-08T01:00:02.205Z,89.50
2023-04-08T01:01:02.218Z,89.40
2023-04-08T01:02:02.257Z,88.43
2023-04-08T01:03:02.242Z,88.33
2023-04-08T01:04:02.254Z,88.74
2023-04-08T01:05:02.122Z,89.25
2023-04-08T01:06:02.082Z,89.36
2023-04-08T01:07:02.075Z,88.53
2023-04-08T01:08:02.081Z,88.33
2023-04-08T01:09:02.080Z,89.25
2023-04-08T01:10:02.042Z,89.25
2023-04-08T01:11:02.029Z,88.02
2023-04-08T01:12:02.051Z,89.36
2023-04-08T01:13:02.017Z,88.64
2023-04-08T01:14:02.058Z,88.95
2023-04-08T01:15:01.991Z,88.78
2023-04-08T01:16:02.048Z,88.02
2023-04-08T01:17:01.970Z,89.15
2023-04-08T01:18:02.022Z,88.74
2023-04-08T01:19:01.972Z,88.64
2023-04-08T01:20:01.973Z,88.78
2023-04-08T01:21:01.946Z,89.05
2023-04-08T01:22:01.915Z,88.74
2023-04-08T01:23:01.943Z,88.99
2023-04-08T01:24:01.909Z,88.64
2023-04-08T01:25:01.889Z,89.46
2023-04-08T01:26:01.872Z,89.36
2023-04-08T01:27:01.868Z,88.78
2023-04-08T01:28:01.875Z,89.36
2023-04-08T01:29:01.858Z,89.46
2023-04-08T01:30:01.827Z,88.74
2023-04-08T01:31:01.847Z,88.74
2023-04-08T01:32:01.804Z,88.78
2023-04-08T01:33:01.925Z,89.19
2023-04-08T01:34:01.864Z,88.68
2023-04-08T01:35:01.784Z,89.29
2023-04-08T01:36:01.780Z,89.09
2023-04-08T01:37:01.775Z,88.57
2023-04-08T01:38:01.760Z,88.99
2023-04-08T01:39:01.764Z,88.99
2023-04-08T01:40:01.783Z,88.68
2023-04-08T01:41:01.710Z,89.40
2023-04-08T01:42:01.734Z,89.29
2023-04-08T01:43:01.690Z,89.09
2023-04-08T01:44:01.676Z,89.09
2023-04-08T01:45:01.676Z,89.19
2023-04-08T01:46:01.660Z,88.99
2023-04-08T01:47:01.744Z,89.61
2023-04-08T01:48:01.720Z,89.40
2023-04-08T01:49:01.724Z,89.19
2023-04-08T01:50:01.697Z,88.89
2023-04-08T01:51:01.606Z,88.89
2023-04-08T01:52:01.620Z,89.19
2023-04-08T01:53:01.606Z,89.09
2023-04-08T01:54:01.613Z,88.99
2023-04-08T01:55:01.582Z,89.09
2023-04-08T01:56:01.556Z,89.50
2023-04-08T01:57:01.553Z,89.29
2023-04-08T01:58:01.604Z,88.95
2023-04-08T01:59:01.545Z,89.29
2023-04-08T02:00:01.517Z,88.68
2023-04-08T02:01:01.510Z,89.19
2023-04-08T02:02:01.645Z,88.78
2023-04-08T02:03:01.739Z,88.78
2023-04-08T02:04:01.562Z,89.29
2023-04-08T02:05:01.477Z,89.29
2023-04-08T02:06:01.451Z,88.68
2023-04-08T02:07:01.524Z,89.19
2023-04-08T02:08:01.433Z,88.99
2023-04-08T02:09:01.485Z,89.09
2023-04-08T02:10:01.402Z,89.09
2023-04-08T02:11:01.397Z,88.99
2023-04-08T02:12:01.408Z,89.29
2023-04-08T02:13:01.372Z,89.40
2023-04-08T02:14:01.397Z,89.09
2023-04-08T02:15:01.353Z,89.50
2023-04-08T02:16:01.454Z,89.61
2023-04-08T02:17:01.327Z,89.34
2023-04-08T02:18:01.360Z,89.29
2023-04-08T02:19:01.328Z,89.19
2023-04-08T02:20:01.300Z,89.29
2023-04-08T02:21:01.287Z,89.29
2023-04-08T02:22:01.272Z,88.68
2023-04-08T02:23:01.262Z,89.34
2023-04-08T02:24:02.693Z,89.44
2023-04-08T02:25:01.314Z,89.19
2023-04-08T02:26:01.229Z,89.03
2023-04-08T02:27:01.222Z,89.34
2023-04-08T02:28:01.213Z,89.91
2023-04-08T02:29:01.219Z,89.34
2023-04-08T02:30:01.184Z,89.50
2023-04-08T02:31:01.180Z,89.71
2023-04-08T02:32:01.231Z,89.54
2023-04-08T02:33:01.214Z,89.85
2023-04-08T02:34:01.169Z,90.01
2023-04-08T02:35:01.135Z,89.40
2023-04-08T02:36:01.188Z,89.65
2023-04-08T02:37:01.123Z,89.65
2023-04-08T02:38:01.116Z,89.95
2023-04-08T02:39:01.111Z,90.12
2023-04-08T02:40:01.078Z,90.26
2023-04-08T02:41:01.126Z,90.22
2023-04-08T02:42:01.082Z,89.81
2023-04-08T02:43:01.059Z,89.81
2023-04-08T02:44:01.036Z,89.75
2023-04-08T02:45:01.028Z,89.81
2023-04-08T02:46:01.066Z,89.75
2023-04-08T02:47:01.005Z,90.16
2023-04-08T02:48:01.070Z,89.65
2023-04-08T02:49:00.982Z,89.85
2023-04-08T02:50:00.975Z,89.81
2023-04-08T02:51:00.978Z,89.71
2023-04-08T02:52:00.949Z,89.85
2023-04-08T02:53:00.941Z,90.22
2023-04-08T02:54:00.930Z,90.22
2023-04-08T02:55:00.918Z,89.85
2023-04-08T02:56:00.950Z,90.47
2023-04-08T02:57:00.921Z,89.91
2023-04-08T02:58:00.885Z,89.85
2023-04-08T02:59:00.928Z,89.75
2023-04-08T03:00:00.887Z,90.57
2023-04-08T03:01:00.899Z,90.06
2023-04-08T03:02:00.910Z,90.53
2023-04-08T03:03:01.019Z,90.26
2023-04-08T03:04:00.829Z,90.57
2023-04-08T03:05:00.821Z,89.95
2023-04-08T03:06:00.821Z,90.57
2023-04-08T03:07:00.801Z,90.33
2023-04-08T03:08:00.803Z,90.47
2023-04-08T03:09:00.783Z,90.57
2023-04-08T03:10:00.769Z,90.57
2023-04-08T03:11:00.769Z,90.53
2023-04-08T03:12:00.743Z,90.57
2023-04-08T03:13:00.742Z,90.67
2023-04-08T03:14:00.712Z,90.88
2023-04-08T03:15:00.747Z,90.88
2023-04-08T03:16:00.693Z,90.64
2023-04-08T03:17:00.820Z,90.78
2023-04-08T03:18:00.764Z,90.57
2023-04-08T03:19:00.745Z,90.47
2023-04-08T03:20:00.654Z,90.67
2023-04-08T03:21:00.643Z,90.57
2023-04-08T03:22:00.627Z,90.64
2023-04-08T03:23:00.629Z,90.78
2023-04-08T03:24:00.610Z,90.88
2023-04-08T03:25:00.639Z,90.84
2023-04-08T03:26:00.617Z,90.73
2023-04-08T03:27:00.612Z,90.64
2023-04-08T03:28:00.567Z,90.73
2023-04-08T03:29:00.590Z,90.64
2023-04-08T03:30:00.561Z,90.99
2023-04-08T03:31:00.533Z,91.09
2023-04-08T03:32:00.551Z,90.99
2023-04-08T03:33:00.605Z,90.88
2023-04-08T03:34:00.520Z,90.64
2023-04-08T03:35:00.511Z,90.84
2023-04-08T03:36:00.502Z,90.53
2023-04-08T03:37:00.468Z,90.53
2023-04-08T03:38:00.456Z,90.78
2023-04-08T03:39:00.477Z,90.64
2023-04-08T03:40:00.440Z,90.78
2023-04-08T03:41:00.435Z,90.94
2023-04-08T03:42:00.416Z,90.88
2023-04-08T03:43:00.403Z,90.67
2023-04-08T03:44:00.418Z,90.73
2023-04-08T03:45:00.407Z,90.88
2023-04-08T03:46:00.391Z,90.57
2023-04-08T03:47:00.369Z,90.47
2023-04-08T03:48:00.384Z,90.57
2023-04-08T03:49:00.366Z,90.47
2023-04-08T03:50:00.335Z,90.67
2023-04-08T03:51:00.319Z,90.88
2023-04-08T03:52:00.304Z,90.78
2023-04-08T03:53:00.350Z,91.19
2023-04-08T03:54:00.300Z,91.30
2023-04-08T03:55:00.277Z,91.05
2023-04-08T03:56:00.270Z,91.05
2023-04-08T03:57:00.251Z,90.99
2023-04-08T03:58:00.241Z,90.57
2023-04-08T03:59:00.252Z,90.99
2023-04-08T04:00:00.262Z,91.09
2023-04-08T04:01:00.229Z,91.19
2023-04-08T04:02:00.275Z,91.30
2023-04-08T04:03:00.255Z,91.30
2023-04-08T04:04:00.349Z,91.30
2023-04-08T04:05:00.373Z,91.60
2023-04-08T04:06:00.171Z,90.78
2023-04-08T04:07:00.143Z,91.60
2023-04-08T04:08:00.134Z,91.19
2023-04-08T04:09:00.123Z,91.50
2023-04-08T04:10:00.178Z,91.34
2023-04-08T04:11:00.115Z,91.30
2023-04-08T04:12:00.112Z,91.81
2023-04-08T04:13:00.113Z,91.91
2023-04-08T04:14:00.107Z,91.40
2023-04-08T04:15:00.107Z,91.60
2023-04-08T04:16:00.086Z,91.60
2023-04-08T04:17:00.090Z,91.60
2023-04-08T04:18:00.077Z,91.81
2023-04-08T04:19:00.293Z,91.40
2023-04-08T04:20:00.005Z,91.40
2023-04-08T04:20:59.994Z,91.40
2023-04-08T04:21:59.983Z,91.30
2023-04-08T04:22:59.976Z,91.77
2023-04-08T04:23:59.978Z,91.30
2023-04-08T04:24:59.954Z,91.50
2023-04-08T04:25:59.941Z,91.71
2023-04-08T04:26:59.946Z,91.05
2023-04-08T04:27:59.920Z,91.60
2023-04-08T04:28:59.925Z,91.60
2023-04-08T04:29:59.937Z,91.56
2023-04-08T04:30:59.921Z,91.40
2023-04-08T04:31:59.877Z,91.30
2023-04-08T04:32:59.931Z,91.30
2023-04-08T04:33:59.857Z,91.30
2023-04-08T04:34:59.871Z,91.40
2023-04-08T04:35:59.870Z,91.40
2023-04-08T04:36:59.824Z,91.40
2023-04-08T04:37:59.811Z,91.50
2023-04-08T04:38:59.819Z,91.66
2023-04-08T04:39:59.805Z,91.60
2023-04-08T04:40:59.780Z,91.71
2023-04-08T04:41:59.769Z,91.40
2023-04-08T04:42:59.762Z,91.46
2023-04-08T04:43:59.749Z,91.87
2023-04-08T04:44:59.784Z,91.30
2023-04-08T04:45:59.768Z,91.15
2023-04-08T04:46:59.716Z,91.50
2023-04-08T04:47:59.768Z,91.50
2023-04-08T04:48:59.822Z,91.15
2023-04-08T04:49:59.684Z,91.25
2023-04-08T04:50:59.670Z,91.77
2023-04-08T04:51:59.668Z,91.46
2023-04-08T04:52:59.648Z,91.25
2023-04-08T04:53:59.657Z,91.25
2023-04-08T04:54:59.626Z,90.94
2023-04-08T04:55:59.627Z,90.53
2023-04-08T04:56:59.606Z,90.43
2023-04-08T04:57:59.603Z,91.25
2023-04-08T04:58:59.591Z,90.88
2023-04-08T04:59:59.584Z,90.88
2023-04-08T05:00:59.577Z,90.73
2023-04-08T05:01:59.689Z,90.84
2023-04-08T05:02:59.728Z,91.36
2023-04-08T05:03:59.551Z,91.09
2023-04-08T05:04:59.635Z,91.05
2023-04-08T05:05:59.516Z,91.36
2023-04-08T05:06:59.509Z,90.94
2023-04-08T05:07:59.494Z,91.05
2023-04-08T05:08:59.506Z,91.05
2023-04-08T05:09:59.475Z,91.15
2023-04-08T05:10:59.468Z,91.15
2023-04-08T05:11:59.457Z,90.73
2023-04-08T05:12:59.441Z,90.73
2023-04-08T05:13:59.478Z,91.15
2023-04-08T05:14:59.433Z,90.43
2023-04-08T05:15:59.497Z,90.53
2023-04-08T05:16:59.399Z,90.84
2023-04-08T05:17:59.435Z,90.53
2023-04-08T05:18:59.392Z,90.73
2023-04-08T05:19:59.373Z,90.53
2023-04-08T05:20:59.379Z,90.64
2023-04-08T05:21:59.356Z,91.05
2023-04-08T05:22:59.347Z,90.64
2023-04-08T05:23:59.392Z,90.43
2023-04-08T05:24:59.314Z,90.64
2023-04-08T05:25:59.309Z,90.64
2023-04-08T05:26:59.297Z,90.80
2023-04-08T05:27:59.292Z,90.59
2023-04-08T05:28:59.284Z,90.49
2023-04-08T05:29:59.263Z,90.59
2023-04-08T05:30:59.277Z,90.69
2023-04-08T05:31:59.244Z,90.59
2023-04-08T05:33:00.585Z,90.59
2023-04-08T05:33:59.246Z,90.49
2023-04-08T05:34:59.207Z,90.69
2023-04-08T05:35:59.280Z,91.00
2023-04-08T05:36:59.209Z,90.90
2023-04-08T05:37:59.198Z,90.80
2023-04-08T05:39:00.037Z,90.69
2023-04-08T05:39:59.158Z,90.39
2023-04-08T05:40:59.149Z,90.39
2023-04-08T05:41:59.154Z,90.59
2023-04-08T05:42:59.120Z,91.21
2023-04-08T05:43:59.128Z,90.49
2023-04-08T05:44:59.125Z,90.39
2023-04-08T05:45:59.105Z,89.94
2023-04-08T05:46:59.212Z,89.73
2023-04-08T05:47:59.122Z,89.62
2023-04-08T05:48:59.078Z,89.31
2023-04-08T05:49:59.056Z,89.42
2023-04-08T05:50:59.036Z,89.56
2023-04-08T05:51:59.028Z,89.62
2023-04-08T05:52:59.043Z,89.67
2023-04-08T05:53:59.008Z,89.83
2023-04-08T05:54:59.029Z,89.73
2023-04-08T05:55:58.988Z,89.73
2023-04-08T05:56:58.970Z,89.52
2023-04-08T05:57:58.958Z,89.36
2023-04-08T05:58:58.947Z,89.22
2023-04-08T05:59:58.949Z,89.15
2023-04-08T06:00:58.927Z,89.22
2023-04-08T06:01:59.020Z,89.52
2023-04-08T06:02:59.154Z,89.22
2023-04-08T06:03:59.082Z,89.42
2023-04-08T06:04:58.951Z,89.11
2023-04-08T06:05:58.885Z,89.31
2023-04-08T06:06:58.863Z,89.11
2023-04-08T06:07:58.847Z,89.22
2023-04-08T06:08:58.858Z,89.11
2023-04-08T06:09:58.836Z,89.42
2023-04-08T06:10:58.830Z,89.42
2023-04-08T06:11:58.800Z,89.52
2023-04-08T06:12:58.793Z,89.31
2023-04-08T06:13:58.778Z,88.80
2023-04-08T06:14:58.785Z,89.31
2023-04-08T06:15:58.761Z,88.90
2023-04-08T06:16:58.817Z,89.22
2023-04-08T06:17:58.752Z,89.11
2023-04-08T06:18:58.721Z,88.96
2023-04-08T06:19:58.744Z,88.66
2023-04-08T06:20:58.699Z,88.96
2023-04-08T06:21:58.711Z,88.56
2023-04-08T06:22:58.693Z,88.86
2023-04-08T06:23:58.671Z,88.76
2023-04-08T06:24:58.686Z,88.45
2023-04-08T06:25:58.658Z,88.41
2023-04-08T06:26:58.634Z,88.96
2023-04-08T06:27:58.640Z,88.31
2023-04-08T06:28:58.630Z,88.92
2023-04-08T06:29:58.604Z,88.41
2023-04-08T06:30:58.596Z,88.31
2023-04-08T06:31:58.874Z,88.31
2023-04-08T06:32:58.622Z,89.03
2023-04-08T06:33:58.599Z,89.19
2023-04-08T06:34:58.565Z,89.23
2023-04-08T06:35:58.569Z,88.62
2023-04-08T06:36:58.530Z,88.20
2023-04-08T06:37:58.518Z,88.62
2023-04-08T06:38:58.510Z,88.62
2023-04-08T06:39:58.528Z,88.92
2023-04-08T06:40:58.510Z,88.17
2023-04-08T06:41:58.480Z,87.38
2023-04-08T06:42:58.465Z,87.49
2023-04-08T06:43:58.453Z,88.06
2023-04-08T06:44:58.634Z,88.17
2023-04-08T06:45:58.486Z,88.06
2023-04-08T06:46:58.420Z,87.85
2023-04-08T06:47:58.439Z,87.75
2023-04-08T06:48:58.402Z,87.45
2023-04-08T06:49:58.402Z,86.83
2023-04-08T06:50:58.412Z,87.13
2023-04-08T06:51:58.367Z,87.13
2023-04-08T06:52:58.372Z,86.83
2023-04-08T06:53:58.348Z,87.65
2023-04-08T06:54:58.353Z,87.55
2023-04-08T06:55:58.326Z,87.45
2023-04-08T06:56:58.429Z,87.04
2023-04-08T06:57:58.302Z,86.72
2023-04-08T06:58:58.295Z,87.82
2023-04-08T06:59:58.296Z,87.71
2023-04-08T07:00:58.295Z,87.71
2023-04-08T07:01:58.462Z,86.99
2023-04-08T07:02:58.306Z,87.71
2023-04-08T07:03:58.249Z,87.71
2023-04-08T07:04:58.247Z,87.10
2023-04-08T07:05:58.217Z,87.40
2023-04-08T07:06:58.206Z,87.51
2023-04-08T07:07:58.198Z,86.85
2023-04-08T07:08:58.194Z,87.16
2023-04-08T07:09:58.185Z,86.24
2023-04-08T07:10:58.166Z,86.24
2023-04-08T07:11:58.542Z,86.24
2023-04-08T07:12:58.169Z,85.66
2023-04-08T07:13:58.137Z,85.52
2023-04-08T07:14:58.328Z,85.93
2023-04-08T07:15:58.114Z,86.13
2023-04-08T07:16:58.127Z,86.33
2023-04-08T07:17:58.129Z,86.24
2023-04-08T07:18:58.081Z,86.44
2023-04-08T07:19:58.114Z,85.99
2023-04-08T07:20:58.068Z,85.89
2023-04-08T07:21:58.050Z,85.72
2023-04-08T07:22:58.041Z,85.47
2023-04-08T07:23:58.026Z,85.58
2023-04-08T07:24:58.038Z,85.62
2023-04-08T07:25:58.006Z,85.62
2023-04-08T07:26:57.993Z,85.89
2023-04-08T07:27:57.986Z,85.78
2023-04-08T07:28:58.011Z,85.68
2023-04-08T07:29:57.965Z,85.47
2023-04-08T07:30:57.970Z,85.54
2023-04-08T07:31:57.943Z,85.13
2023-04-08T07:33:00.462Z,84.72
2023-04-08T07:33:57.921Z,84.61
2023-04-08T07:34:57.921Z,84.20
2023-04-08T07:35:57.927Z,84.20
2023-04-08T07:36:57.885Z,84.41
2023-04-08T07:37:57.924Z,84.31
2023-04-08T07:38:57.896Z,83.39
2023-04-08T07:39:57.864Z,83.69
2023-04-08T07:40:57.838Z,83.69
2023-04-08T07:41:57.834Z,83.59
2023-04-08T07:42:57.825Z,83.49
2023-04-08T07:43:57.866Z,83.49
2023-04-08T07:44:57.824Z,83.59
2023-04-08T07:45:57.796Z,82.97
2023-04-08T07:46:57.776Z,83.80
2023-04-08T07:47:57.865Z,83.59
2023-04-08T07:48:57.780Z,83.73
2023-04-08T07:49:57.743Z,83.32
2023-04-08T07:51:09.400Z,83.94
2023-04-08T07:51:58.718Z,84.45
2023-04-08T07:52:57.708Z,84.14
2023-04-08T07:53:57.706Z,84.20
2023-04-08T07:54:57.684Z,84.45
2023-04-08T07:55:57.844Z,84.10
2023-04-08T07:56:57.666Z,84.31
2023-04-08T07:57:57.653Z,84.14
2023-04-08T07:58:57.833Z,83.69
2023-04-08T07:59:57.633Z,84.41
2023-04-08T08:00:57.649Z,84.45
2023-04-08T08:01:57.640Z,84.34
2023-04-08T08:02:57.680Z,84.20
2023-04-08T08:03:58.202Z,84.20
2023-04-08T08:04:57.616Z,84.34
2023-04-08T08:05:57.593Z,84.10
2023-04-08T08:06:57.591Z,84.00
2023-04-08T08:07:57.544Z,84.61
2023-04-08T08:08:57.593Z,84.31
2023-04-08T08:09:57.529Z,84.20
2023-04-08T08:10:57.532Z,84.00
2023-04-08T08:11:57.536Z,83.80
2023-04-08T08:12:57.499Z,83.07
2023-04-08T08:13:57.478Z,83.59
2023-04-08T08:14:57.471Z,83.69
2023-04-08T08:15:57.534Z,83.76
2023-04-08T08:16:57.464Z,83.80
2023-04-08T08:17:57.445Z,83.69
2023-04-08T08:18:57.442Z,83.25
2023-04-08T08:19:57.414Z,83.45
2023-04-08T08:20:57.420Z,83.14
2023-04-08T08:22:05.467Z,83.25
2023-04-08T08:22:57.980Z,83.25
2023-04-08T08:23:57.387Z,82.83
2023-04-08T08:24:57.371Z,83.04
2023-04-08T08:25:57.351Z,83.34
2023-04-08T08:26:57.339Z,83.45
2023-04-08T08:27:57.338Z,83.45
2023-04-08T08:28:57.348Z,82.93
2023-04-08T08:29:57.307Z,82.93
2023-04-08T08:30:57.413Z,82.83
2023-04-08T08:31:57.287Z,82.83
2023-04-08T08:32:57.362Z,82.42
2023-04-08T08:33:57.278Z,82.93
2023-04-08T08:34:57.254Z,83.25
2023-04-08T08:35:57.257Z,83.34
2023-04-08T08:36:57.236Z,83.25
2023-04-08T08:37:57.232Z,82.83
2023-04-08T08:38:57.223Z,82.73
2023-04-08T08:39:57.262Z,82.53
2023-04-08T08:40:57.201Z,82.63
2023-04-08T08:41:57.182Z,82.73
2023-04-08T08:42:57.177Z,82.93
2023-04-08T08:43:57.154Z,82.69
2023-04-08T08:44:57.146Z,82.83
2023-04-08T08:45:57.134Z,82.83
2023-04-08T08:46:57.225Z,82.83
2023-04-08T08:47:57.188Z,82.73
2023-04-08T08:48:57.122Z,82.93
2023-04-08T08:49:57.087Z,82.42
2023-04-08T08:50:57.087Z,82.83
2023-04-08T08:51:57.067Z,82.63
2023-04-08T08:52:57.066Z,82.42
2023-04-08T08:53:57.058Z,82.53
2023-04-08T08:54:57.032Z,82.63
2023-04-08T08:56:13.633Z,82.90
2023-04-08T08:56:58.009Z,82.49
2023-04-08T08:57:57.013Z,82.69
2023-04-08T08:58:56.987Z,82.65
2023-04-08T08:59:56.995Z,82.21
2023-04-08T09:00:56.967Z,81.35
2023-04-08T09:01:57.060Z,80.43
2023-04-08T09:02:57.295Z,80.19
2023-04-08T09:03:57.059Z,79.47
2023-04-08T09:04:57.192Z,79.16
2023-04-08T09:05:56.921Z,79.06
2023-04-08T09:06:56.905Z,78.96
2023-04-08T09:07:56.907Z,79.16
2023-04-08T09:08:56.886Z,79.06
2023-04-08T09:09:56.868Z,78.86
2023-04-08T09:10:56.861Z,78.86
2023-04-08T09:11:56.846Z,79.16
2023-04-08T09:12:56.853Z,79.37
2023-04-08T09:13:56.827Z,79.47
2023-04-08T09:14:56.814Z,79.06
2023-04-08T09:15:56.850Z,79.20
2023-04-08T09:16:56.797Z,79.30
2023-04-08T09:17:56.828Z,79.41
2023-04-08T09:18:56.804Z,79.30
2023-04-08T09:19:56.760Z,78.93
2023-04-08T09:20:56.798Z,79.38
2023-04-08T09:21:56.741Z,79.38
2023-04-08T09:22:56.785Z,79.79
2023-04-08T09:23:56.741Z,80.51
2023-04-08T09:24:56.749Z,80.95
2023-04-08T09:25:56.741Z,81.57
2023-04-08T09:26:56.729Z,81.32
2023-04-08T09:27:56.672Z,81.43
2023-04-08T09:28:56.688Z,81.32
2023-04-08T09:29:56.662Z,81.87
2023-04-08T09:30:56.654Z,82.14
2023-04-08T09:31:56.873Z,81.84
2023-04-08T09:32:56.699Z,81.84
2023-04-08T09:33:56.628Z,81.94
2023-04-08T09:34:56.601Z,81.63
2023-04-08T09:35:56.620Z,81.43
2023-04-08T09:36:56.858Z,81.32
2023-04-08T09:37:56.572Z,81.84
2023-04-08T09:38:56.571Z,81.22
2023-04-08T09:39:56.552Z,81.43
2023-04-08T09:40:56.542Z,81.84
2023-04-08T09:41:56.527Z,81.98
2023-04-08T09:42:56.515Z,81.57
2023-04-08T09:43:56.546Z,81.67
2023-04-08T09:44:56.502Z,81.63
2023-04-08T09:45:56.524Z,81.77
2023-04-08T09:46:56.471Z,81.67
2023-04-08T09:47:56.536Z,81.57
2023-04-08T09:48:56.479Z,81.87
2023-04-08T09:49:56.531Z,81.52
2023-04-08T09:50:56.426Z,81.57
2023-04-08T09:51:56.415Z,81.77
2023-04-08T09:52:56.431Z,81.57
2023-04-08T09:53:56.434Z,81.05
2023-04-08T09:54:56.400Z,80.85
2023-04-08T09:55:56.370Z,81.50
2023-04-08T09:56:56.375Z,81.60
2023-04-08T09:57:56.351Z,82.01
2023-04-08T09:58:56.385Z,81.91
2023-04-08T09:59:56.358Z,82.39
2023-04-08T10:00:56.349Z,82.08
2023-04-08T10:01:56.360Z,81.46
2023-04-08T10:02:56.656Z,81.67
2023-04-08T10:03:56.358Z,80.64
2023-04-08T10:04:56.340Z,80.51
2023-04-08T10:05:56.270Z,80.43
2023-04-08T10:06:56.259Z,78.48
2023-04-08T10:07:56.260Z,76.53
2023-04-08T10:08:56.295Z,74.69
2023-04-08T10:09:56.231Z,72.41
2023-04-08T10:10:56.269Z,71.87
2023-04-08T10:11:56.202Z,71.64
2023-04-08T10:12:56.191Z,71.23
2023-04-08T10:13:56.196Z,70.41
2023-04-08T10:14:56.173Z,70.86
2023-04-08T10:15:56.160Z,70.17
2023-04-08T10:16:56.172Z,70.68
2023-04-08T10:17:56.182Z,70.68
2023-04-08T10:18:56.138Z,71.33
2023-04-08T10:19:56.126Z,71.26
2023-04-08T10:20:56.110Z,72.38
2023-04-08T10:21:56.090Z,72.62
2023-04-08T10:22:56.116Z,72.72
2023-04-08T10:23:56.092Z,72.14
2023-04-08T10:24:56.081Z,72.65
2023-04-08T10:25:56.059Z,73.67
2023-04-08T10:26:56.037Z,73.47
2023-04-08T10:27:56.022Z,73.36
2023-04-08T10:28:56.028Z,73.98
2023-04-08T10:29:56.001Z,74.08
2023-04-08T10:30:56.010Z,74.49
2023-04-08T10:31:56.026Z,74.38
2023-04-08T10:32:56.043Z,73.36
2023-04-08T10:33:55.997Z,73.36
2023-04-08T10:34:55.950Z,73.57
2023-04-08T10:35:55.988Z,73.50
2023-04-08T10:36:55.928Z,72.58
2023-04-08T10:37:55.914Z,72.28
2023-04-08T10:38:55.925Z,72.69
2023-04-08T10:39:55.891Z,72.69
2023-04-08T10:40:55.904Z,72.69
2023-04-08T10:41:55.871Z,73.23
2023-04-08T10:42:55.865Z,73.94
2023-04-08T10:43:55.862Z,74.01
2023-04-08T10:44:55.838Z,74.46
2023-04-08T10:45:55.880Z,72.31
2023-04-08T10:46:55.881Z,72.11
2023-04-08T10:47:55.831Z,72.31
2023-04-08T10:48:55.816Z,73.33
2023-04-08T10:49:55.785Z,73.54
2023-04-08T10:50:55.775Z,73.64
2023-04-08T10:51:55.759Z,73.50
2023-04-08T10:52:55.748Z,73.54
2023-04-08T10:53:55.750Z,73.74
2023-04-08T10:54:55.728Z,73.94
2023-04-08T10:55:55.717Z,74.05
2023-04-08T10:56:55.732Z,73.84
2023-04-08T10:57:57.721Z,73.57
2023-04-08T10:58:55.697Z,73.74
2023-04-08T10:59:55.673Z,73.98
2023-04-08T11:00:55.696Z,74.08
2023-04-08T11:01:55.757Z,74.18
2023-04-08T11:02:55.752Z,74.18
2023-04-08T11:03:56.059Z,74.87
2023-04-08T11:04:55.619Z,74.80
2023-04-08T11:05:55.613Z,74.59
2023-04-08T11:06:55.601Z,74.80
2023-04-08T11:07:55.592Z,73.98
2023-04-08T11:08:55.651Z,73.64
2023-04-08T11:09:55.566Z,73.84
2023-04-08T11:10:55.555Z,73.94
2023-04-08T11:11:55.543Z,73.54
2023-04-08T11:12:55.574Z,73.54
2023-04-08T11:13:55.870Z,72.92
2023-04-08T11:14:55.512Z,72.48
2023-04-08T11:15:55.552Z,72.89
2023-04-08T11:16:55.517Z,72.07
2023-04-08T11:17:55.496Z,71.56
2023-04-08T11:18:55.491Z,71.56
2023-04-08T11:19:55.460Z,71.63
2023-04-08T11:20:55.700Z,71.73
2023-04-08T11:21:55.437Z,71.05
2023-04-08T11:22:55.429Z,71.67
2023-04-08T11:23:55.434Z,71.67
2023-04-08T11:24:55.411Z,72.28
2023-04-08T11:25:55.404Z,71.36
2023-04-08T11:26:55.385Z,71.15
2023-04-08T11:27:55.473Z,70.78
2023-04-08T11:28:55.401Z,71.09
2023-04-08T11:29:55.348Z,71.70
2023-04-08T11:30:55.367Z,71.91
2023-04-08T11:31:55.329Z,73.13
2023-04-08T11:32:55.417Z,73.64
2023-04-08T11:33:55.456Z,73.57
2023-04-08T11:34:55.301Z,73.47
2023-04-08T11:35:55.335Z,73.57
2023-04-08T11:36:55.274Z,73.47
2023-04-08T11:37:55.313Z,73.68
2023-04-08T11:38:55.274Z,73.88
2023-04-08T11:39:55.241Z,74.25
2023-04-08T11:40:55.234Z,73.77
2023-04-08T11:41:55.277Z,73.74
2023-04-08T11:42:55.210Z,73.44
2023-04-08T11:43:55.250Z,73.19
2023-04-08T11:44:55.205Z,73.33
2023-04-08T11:45:55.197Z,72.48
2023-04-08T11:46:55.262Z,72.28
2023-04-08T11:47:55.202Z,72.69
2023-04-08T11:48:55.167Z,72.69
2023-04-08T11:49:55.126Z,72.48
2023-04-08T11:50:55.120Z,71.43
2023-04-08T11:51:55.116Z,71.67
2023-04-08T11:52:55.096Z,71.63
2023-04-08T11:53:56.337Z,70.81
2023-04-08T11:54:55.087Z,70.81
2023-04-08T11:55:55.062Z,70.85
2023-04-08T11:56:55.050Z,70.44
2023-04-08T11:57:55.071Z,70.72
2023-04-08T11:58:55.033Z,71.53
2023-04-08T11:59:55.022Z,71.22
2023-04-08T12:00:55.036Z,70.61
2023-04-08T12:01:55.015Z,70.81
2023-04-08T12:02:55.107Z,72.24
2023-04-08T12:03:55.374Z,72.45
2023-04-08T12:04:54.992Z,72.24
2023-04-08T12:05:54.961Z,71.70
2023-04-08T12:06:56.964Z,70.72
2023-04-08T12:07:54.942Z,70.31
2023-04-08T12:08:54.933Z,71.09
2023-04-08T12:09:54.915Z,69.90
2023-04-08T12:10:54.897Z,69.90
2023-04-08T12:11:54.893Z,71.02
2023-04-08T12:12:54.910Z,70.40
2023-04-08T12:13:54.871Z,69.86
2023-04-08T12:14:54.876Z,70.17
2023-04-08T12:15:54.853Z,69.35
2023-04-08T12:16:54.942Z,70.17
2023-04-08T12:17:55.014Z,69.56
2023-04-08T12:18:54.826Z,69.35
2023-04-08T12:19:54.800Z,70.24
2023-04-08T12:20:54.801Z,69.63
2023-04-08T12:21:54.778Z,68.40
2023-04-08T12:22:54.787Z,66.67
2023-04-08T12:23:54.758Z,66.97
2023-04-08T12:24:54.754Z,67.29
2023-04-08T12:25:54.765Z,67.18
2023-04-08T12:26:54.742Z,66.85
2023-04-08T12:27:54.744Z,65.22
2023-04-08T12:28:54.717Z,65.04
2023-04-08T12:29:54.697Z,64.63
2023-04-08T12:30:54.689Z,64.84
2023-04-08T12:31:54.794Z,64.84
2023-04-08T12:32:54.804Z,65.65
2023-04-08T12:33:54.674Z,66.77
2023-04-08T12:34:54.654Z,66.85
2023-04-08T12:35:54.676Z,66.27
2023-04-08T12:36:54.621Z,65.01
2023-04-08T12:37:54.623Z,64.70
2023-04-08T12:38:54.606Z,65.25
2023-04-08T12:39:54.597Z,64.94
2023-04-08T12:40:54.581Z,64.73
2023-04-08T12:41:54.572Z,64.32
2023-04-08T12:42:54.581Z,64.73
2023-04-08T12:43:54.549Z,63.92
2023-04-08T12:44:54.544Z,64.84
2023-04-08T12:45:54.525Z,64.12
2023-04-08T12:46:54.543Z,64.63
2023-04-08T12:47:54.570Z,65.95
2023-04-08T12:49:03.313Z,64.84
2023-04-08T12:49:55.479Z,65.52
2023-04-08T12:50:54.468Z,65.22
2023-04-08T12:51:54.462Z,64.60